This is the latest recevied weather packets stored in our database for station/object AE2A-13. If no packets are shown the sender has not sent any weather packets the latest 10 day(s).
| Time | Temp. | Humidity | Pressure | Rain* | Wind** | Luminosity | Snow |
|---|---|---|---|---|---|---|---|
| 1778022604 | 25.56° C | 62% | 1016.3 hPa | 0 mm | - | - | - |
| 1778021704 | 26.11° C | 61% | 1016.3 hPa | 0 mm | - | - | - |
| 1778019003 | 27.22° C | 56% | 1016.5 hPa | 0 mm | - | - | - |
| 1778018703 | 27.22° C | 55% | 1016.5 hPa | 0 mm | - | - | - |
| 1778016304 | 28.33° C | 53% | 1016.2 hPa | 0 mm | - | - | - |
| 1778013604 | 27.78° C | 55% | 1016 hPa | 0 mm | - | - | - |
| 1778010604 | 28.89° C | 52% | 1016.3 hPa | 0 mm | - | - | - |
| 1778010004 | 28.33° C | 55% | 1016.3 hPa | 0 mm | - | - | - |
| 1778008504 | 29.44° C | 54% | 1016.5 hPa | 0 mm | - | - | - |
| 1778007303 | 28.89° C | 55% | 1016.6 hPa | 0 mm | - | - | - |
| 1778003403 | 28.33° C | 57% | 1017.2 hPa | 0 mm | - | - | - |
| 1778002803 | 28.89° C | 55% | 1017.2 hPa | 0 mm | - | - | - |
| 1778000404 | 28.33° C | 59% | 1017.4 hPa | 0 mm | - | - | - |
| 1777999803 | 27.78° C | 59% | 1017.4 hPa | 0 mm | - | - | - |
| 1777999204 | 28.33° C | 58% | 1017.4 hPa | 0 mm | - | - | - |
| 1777996504 | 28.89° C | 58% | 1017.5 hPa | 0 mm | - | - | - |
| 1777996204 | 27.78° C | 61% | 1017.5 hPa | 0 mm | - | - | - |
| 1777994704 | 27.78° C | 60% | 1017.6 hPa | 0 mm | - | - | - |
| 1777989004 | 25.56° C | 74% | 1017.6 hPa | 0 mm | - | - | - |
| 1777986604 | 23.89° C | 82% | 1017.3 hPa | 0 mm | - | - | - |
| 1777982104 | 19.44° C | 97% | 1017 hPa | 0 mm | - | - | - |
| 1777980304 | 16.67° C | 100% | 1016.3 hPa | 0 mm | - | - | - |
| 1777977304 | 15.56° C | 96% | 1016.1 hPa | 0 mm | - | - | - |
| 1777975804 | 15.56° C | 96% | 1016 hPa | 0 mm | - | - | - |
| 1777974603 | 16.11° C | 96% | 1015.8 hPa | 0 mm | - | - | - |
* Rain latest hour (hover to see other rain measurements)
** Current wind speed in m/s (hover to see current wind gust speed)